<?xml version="1.0" encoding="UTF-8" standalone="no" ?>
<gpx xmlns="http://www.topografix.com/GPX/1/1" xmlns:xsi="http://www.w3.org/2001/XMLSchema-instance" xsi:schemaLocation="http://www.topografix.com/GPX/1/1 http://www.topografix.com/GPX/1/1/gpx.xsd" version="1.1" creator="VisuGPX - https://www.visugpx.com">
  <metadata>
    <name>Pavillon de Roland - Combe de Guerène - Font d'Anjou - Perrache - Jas des Melettes</name>
    <desc><![CDATA[Randonnée sans difficultés particulières. En grande partie ombragée.]]></desc>
  </metadata>
  <wpt lat="44.12395" lon="5.26502">
    <ele>812</ele>
    <name><![CDATA[Point de passage 1]]></name>
  </wpt>
  <wpt lat="44.12403" lon="5.26504">
    <ele>812</ele>
    <name><![CDATA[Point de passage 2]]></name>
  </wpt>
  <trk>
    <name><![CDATA[Randonnée du 04/07/2025 à 13:16]]></name>
    <extensions>
      <line xmlns="http://www.topografix.com/GPX/gpx_style/0/2">
        <color>0000FF</color>
        <width>4</width>
      </line>
    </extensions>
    <trkseg>
      <trkpt lat="44.12395" lon="5.26502">
        <ele>812</ele>
        <time>2026-07-12T17:28:37.000Z</time>
      </trkpt>
      <trkpt lat="44.12385" lon="5.26497">
        <ele>813</ele>
        <time>2026-07-12T17:28:59.000Z</time>
      </trkpt>
      <trkpt lat="44.12385" lon="5.26497">
        <ele>813</ele>
        <time>2026-07-12T17:28:59.000Z</time>
      </trkpt>
      <trkpt lat="44.12363" lon="5.26475">
        <ele>818</ele>
        <time>2026-07-12T17:30:21.000Z</time>
      </trkpt>
      <trkpt lat="44.12343" lon="5.26463">
        <ele>821</ele>
        <time>2026-07-12T17:31:17.000Z</time>
      </trkpt>
      <trkpt lat="44.12325" lon="5.26465">
        <ele>821</ele>
        <time>2026-07-12T17:31:38.000Z</time>
      </trkpt>
      <trkpt lat="44.12287" lon="5.26483">
        <ele>818</ele>
        <time>2026-07-12T17:32:24.000Z</time>
      </trkpt>
      <trkpt lat="44.12259" lon="5.2649">
        <ele>815</ele>
        <time>2026-07-12T17:32:57.000Z</time>
      </trkpt>
      <trkpt lat="44.12188" lon="5.26502">
        <ele>811</ele>
        <time>2026-07-12T17:34:19.000Z</time>
      </trkpt>
      <trkpt lat="44.12107" lon="5.26527">
        <ele>807</ele>
        <time>2026-07-12T17:35:54.000Z</time>
      </trkpt>
      <trkpt lat="44.12089" lon="5.26536">
        <ele>805</ele>
        <time>2026-07-12T17:36:16.000Z</time>
      </trkpt>
      <trkpt lat="44.12075" lon="5.26555">
        <ele>803</ele>
        <time>2026-07-12T17:36:38.000Z</time>
      </trkpt>
      <trkpt lat="44.12045" lon="5.26576">
        <ele>799</ele>
        <time>2026-07-12T17:37:16.000Z</time>
      </trkpt>
      <trkpt lat="44.11981" lon="5.26607">
        <ele>791</ele>
        <time>2026-07-12T17:38:34.000Z</time>
      </trkpt>
      <trkpt lat="44.11961" lon="5.26641">
        <ele>792</ele>
        <time>2026-07-12T17:39:20.000Z</time>
      </trkpt>
      <trkpt lat="44.11959" lon="5.26652">
        <ele>793</ele>
        <time>2026-07-12T17:39:40.000Z</time>
      </trkpt>
      <trkpt lat="44.11953" lon="5.26658">
        <ele>792</ele>
        <time>2026-07-12T17:39:48.000Z</time>
      </trkpt>
      <trkpt lat="44.11941" lon="5.26681">
        <ele>792</ele>
        <time>2026-07-12T17:40:11.000Z</time>
      </trkpt>
      <trkpt lat="44.11926" lon="5.26694">
        <ele>791</ele>
        <time>2026-07-12T17:40:31.000Z</time>
      </trkpt>
      <trkpt lat="44.11889" lon="5.2667">
        <ele>782</ele>
        <time>2026-07-12T17:41:18.000Z</time>
      </trkpt>
      <trkpt lat="44.11859" lon="5.26634">
        <ele>775</ele>
        <time>2026-07-12T17:42:03.000Z</time>
      </trkpt>
      <trkpt lat="44.11824" lon="5.26645">
        <ele>773</ele>
        <time>2026-07-12T17:42:44.000Z</time>
      </trkpt>
      <trkpt lat="44.11805" lon="5.26635">
        <ele>771</ele>
        <time>2026-07-12T17:43:07.000Z</time>
      </trkpt>
      <trkpt lat="44.11771" lon="5.26615">
        <ele>766</ele>
        <time>2026-07-12T17:43:49.000Z</time>
      </trkpt>
      <trkpt lat="44.1174" lon="5.26598">
        <ele>763</ele>
        <time>2026-07-12T17:44:27.000Z</time>
      </trkpt>
      <trkpt lat="44.11721" lon="5.26585">
        <ele>762</ele>
        <time>2026-07-12T17:44:51.000Z</time>
      </trkpt>
      <trkpt lat="44.11713" lon="5.26561">
        <ele>759</ele>
        <time>2026-07-12T17:45:13.000Z</time>
      </trkpt>
      <trkpt lat="44.117" lon="5.26588">
        <ele>764</ele>
        <time>2026-07-12T17:46:31.000Z</time>
      </trkpt>
      <trkpt lat="44.1169" lon="5.26604">
        <ele>765</ele>
        <time>2026-07-12T17:46:59.000Z</time>
      </trkpt>
      <trkpt lat="44.11678" lon="5.26643">
        <ele>768</ele>
        <time>2026-07-12T17:48:05.000Z</time>
      </trkpt>
      <trkpt lat="44.11672" lon="5.26654">
        <ele>770</ele>
        <time>2026-07-12T17:48:37.000Z</time>
      </trkpt>
      <trkpt lat="44.11657" lon="5.26672">
        <ele>772</ele>
        <time>2026-07-12T17:49:20.000Z</time>
      </trkpt>
      <trkpt lat="44.11632" lon="5.26703">
        <ele>773</ele>
        <time>2026-07-12T17:50:09.000Z</time>
      </trkpt>
      <trkpt lat="44.11612" lon="5.26743">
        <ele>774</ele>
        <time>2026-07-12T17:50:59.000Z</time>
      </trkpt>
      <trkpt lat="44.11606" lon="5.26759">
        <ele>774</ele>
        <time>2026-07-12T17:51:14.000Z</time>
      </trkpt>
      <trkpt lat="44.11604" lon="5.26774">
        <ele>775</ele>
        <time>2026-07-12T17:51:37.000Z</time>
      </trkpt>
      <trkpt lat="44.11602" lon="5.2679">
        <ele>775</ele>
        <time>2026-07-12T17:51:50.000Z</time>
      </trkpt>
      <trkpt lat="44.11605" lon="5.26832">
        <ele>777</ele>
        <time>2026-07-12T17:52:45.000Z</time>
      </trkpt>
      <trkpt lat="44.11605" lon="5.26847">
        <ele>777</ele>
        <time>2026-07-12T17:52:57.000Z</time>
      </trkpt>
      <trkpt lat="44.116" lon="5.2691">
        <ele>778</ele>
        <time>2026-07-12T17:53:59.000Z</time>
      </trkpt>
      <trkpt lat="44.11587" lon="5.2698">
        <ele>776</ele>
        <time>2026-07-12T17:54:58.000Z</time>
      </trkpt>
      <trkpt lat="44.11576" lon="5.27014">
        <ele>775</ele>
        <time>2026-07-12T17:55:29.000Z</time>
      </trkpt>
      <trkpt lat="44.11571" lon="5.27021">
        <ele>774</ele>
        <time>2026-07-12T17:55:37.000Z</time>
      </trkpt>
      <trkpt lat="44.11557" lon="5.2702">
        <ele>774</ele>
        <time>2026-07-12T17:55:53.000Z</time>
      </trkpt>
      <trkpt lat="44.11525" lon="5.27001">
        <ele>772</ele>
        <time>2026-07-12T17:56:33.000Z</time>
      </trkpt>
      <trkpt lat="44.11508" lon="5.27001">
        <ele>772</ele>
        <time>2026-07-12T17:56:52.000Z</time>
      </trkpt>
      <trkpt lat="44.11489" lon="5.27013">
        <ele>772</ele>
        <time>2026-07-12T17:57:16.000Z</time>
      </trkpt>
      <trkpt lat="44.11456" lon="5.27063">
        <ele>769</ele>
        <time>2026-07-12T17:58:12.000Z</time>
      </trkpt>
      <trkpt lat="44.1143" lon="5.27114">
        <ele>770</ele>
        <time>2026-07-12T17:59:14.000Z</time>
      </trkpt>
      <trkpt lat="44.11409" lon="5.27141">
        <ele>767</ele>
        <time>2026-07-12T17:59:47.000Z</time>
      </trkpt>
      <trkpt lat="44.11354" lon="5.27202">
        <ele>764</ele>
        <time>2026-07-12T18:01:07.000Z</time>
      </trkpt>
      <trkpt lat="44.11349" lon="5.27212">
        <ele>765</ele>
        <time>2026-07-12T18:01:27.000Z</time>
      </trkpt>
      <trkpt lat="44.11344" lon="5.27222">
        <ele>765</ele>
        <time>2026-07-12T18:01:37.000Z</time>
      </trkpt>
      <trkpt lat="44.1134" lon="5.27235">
        <ele>766</ele>
        <time>2026-07-12T18:01:59.000Z</time>
      </trkpt>
      <trkpt lat="44.11338" lon="5.27252">
        <ele>766</ele>
        <time>2026-07-12T18:02:13.000Z</time>
      </trkpt>
      <trkpt lat="44.11337" lon="5.27271">
        <ele>766</ele>
        <time>2026-07-12T18:02:29.000Z</time>
      </trkpt>
      <trkpt lat="44.11337" lon="5.27296">
        <ele>764</ele>
        <time>2026-07-12T18:02:50.000Z</time>
      </trkpt>
      <trkpt lat="44.1134" lon="5.27328">
        <ele>764</ele>
        <time>2026-07-12T18:03:17.000Z</time>
      </trkpt>
      <trkpt lat="44.11356" lon="5.27415">
        <ele>763</ele>
        <time>2026-07-12T18:04:31.000Z</time>
      </trkpt>
      <trkpt lat="44.11356" lon="5.27435">
        <ele>762</ele>
        <time>2026-07-12T18:04:47.000Z</time>
      </trkpt>
      <trkpt lat="44.11354" lon="5.2744">
        <ele>762</ele>
        <time>2026-07-12T18:04:52.000Z</time>
      </trkpt>
      <trkpt lat="44.11351" lon="5.27443">
        <ele>762</ele>
        <time>2026-07-12T18:04:56.000Z</time>
      </trkpt>
      <trkpt lat="44.11347" lon="5.27443">
        <ele>762</ele>
        <time>2026-07-12T18:05:01.000Z</time>
      </trkpt>
      <trkpt lat="44.11319" lon="5.27432">
        <ele>760</ele>
        <time>2026-07-12T18:05:34.000Z</time>
      </trkpt>
      <trkpt lat="44.11299" lon="5.2742">
        <ele>759</ele>
        <time>2026-07-12T18:05:59.000Z</time>
      </trkpt>
      <trkpt lat="44.11292" lon="5.27421">
        <ele>761</ele>
        <time>2026-07-12T18:06:28.000Z</time>
      </trkpt>
      <trkpt lat="44.11287" lon="5.27425">
        <ele>761</ele>
        <time>2026-07-12T18:06:35.000Z</time>
      </trkpt>
      <trkpt lat="44.11282" lon="5.27432">
        <ele>761</ele>
        <time>2026-07-12T18:06:43.000Z</time>
      </trkpt>
      <trkpt lat="44.11274" lon="5.2747">
        <ele>760</ele>
        <time>2026-07-12T18:07:16.000Z</time>
      </trkpt>
      <trkpt lat="44.11264" lon="5.27528">
        <ele>759</ele>
        <time>2026-07-12T18:08:05.000Z</time>
      </trkpt>
      <trkpt lat="44.11254" lon="5.27589">
        <ele>757</ele>
        <time>2026-07-12T18:08:56.000Z</time>
      </trkpt>
      <trkpt lat="44.11245" lon="5.27633">
        <ele>759</ele>
        <time>2026-07-12T18:09:54.000Z</time>
      </trkpt>
      <trkpt lat="44.11241" lon="5.27646">
        <ele>759</ele>
        <time>2026-07-12T18:10:06.000Z</time>
      </trkpt>
      <trkpt lat="44.11236" lon="5.27653">
        <ele>760</ele>
        <time>2026-07-12T18:10:24.000Z</time>
      </trkpt>
      <trkpt lat="44.11233" lon="5.27653">
        <ele>761</ele>
        <time>2026-07-12T18:10:38.000Z</time>
      </trkpt>
      <trkpt lat="44.11227" lon="5.27666">
        <ele>762</ele>
        <time>2026-07-12T18:11:01.000Z</time>
      </trkpt>
      <trkpt lat="44.11224" lon="5.27682">
        <ele>763</ele>
        <time>2026-07-12T18:11:25.000Z</time>
      </trkpt>
      <trkpt lat="44.11223" lon="5.2769">
        <ele>763</ele>
        <time>2026-07-12T18:11:32.000Z</time>
      </trkpt>
      <trkpt lat="44.11222" lon="5.27709">
        <ele>764</ele>
        <time>2026-07-12T18:11:58.000Z</time>
      </trkpt>
      <trkpt lat="44.11218" lon="5.27727">
        <ele>765</ele>
        <time>2026-07-12T18:12:24.000Z</time>
      </trkpt>
      <trkpt lat="44.11207" lon="5.27746">
        <ele>767</ele>
        <time>2026-07-12T18:13:05.000Z</time>
      </trkpt>
      <trkpt lat="44.11186" lon="5.27768">
        <ele>769</ele>
        <time>2026-07-12T18:13:56.000Z</time>
      </trkpt>
      <trkpt lat="44.11168" lon="5.27792">
        <ele>770</ele>
        <time>2026-07-12T18:14:35.000Z</time>
      </trkpt>
      <trkpt lat="44.11157" lon="5.2782">
        <ele>773</ele>
        <time>2026-07-12T18:15:32.000Z</time>
      </trkpt>
      <trkpt lat="44.11152" lon="5.27837">
        <ele>773</ele>
        <time>2026-07-12T18:15:47.000Z</time>
      </trkpt>
      <trkpt lat="44.11151" lon="5.2785">
        <ele>775</ele>
        <time>2026-07-12T18:16:18.000Z</time>
      </trkpt>
      <trkpt lat="44.11154" lon="5.2786">
        <ele>777</ele>
        <time>2026-07-12T18:16:47.000Z</time>
      </trkpt>
      <trkpt lat="44.11163" lon="5.27874">
        <ele>781</ele>
        <time>2026-07-12T18:17:44.000Z</time>
      </trkpt>
      <trkpt lat="44.11184" lon="5.27918">
        <ele>781</ele>
        <time>2026-07-12T18:18:27.000Z</time>
      </trkpt>
      <trkpt lat="44.11198" lon="5.27939">
        <ele>784</ele>
        <time>2026-07-12T18:19:21.000Z</time>
      </trkpt>
      <trkpt lat="44.11222" lon="5.27991">
        <ele>786</ele>
        <time>2026-07-12T18:20:32.000Z</time>
      </trkpt>
      <trkpt lat="44.1123" lon="5.28013">
        <ele>786</ele>
        <time>2026-07-12T18:20:52.000Z</time>
      </trkpt>
      <trkpt lat="44.11236" lon="5.2805">
        <ele>789</ele>
        <time>2026-07-12T18:21:54.000Z</time>
      </trkpt>
      <trkpt lat="44.11234" lon="5.28067">
        <ele>789</ele>
        <time>2026-07-12T18:22:08.000Z</time>
      </trkpt>
      <trkpt lat="44.11236" lon="5.28096">
        <ele>792</ele>
        <time>2026-07-12T18:23:03.000Z</time>
      </trkpt>
      <trkpt lat="44.11248" lon="5.28124">
        <ele>794</ele>
        <time>2026-07-12T18:23:50.000Z</time>
      </trkpt>
      <trkpt lat="44.11255" lon="5.28152">
        <ele>800</ele>
        <time>2026-07-12T18:25:16.000Z</time>
      </trkpt>
      <trkpt lat="44.11269" lon="5.28182">
        <ele>807</ele>
        <time>2026-07-12T18:26:57.000Z</time>
      </trkpt>
      <trkpt lat="44.11274" lon="5.28204">
        <ele>812</ele>
        <time>2026-07-12T18:28:07.000Z</time>
      </trkpt>
      <trkpt lat="44.11269" lon="5.28219">
        <ele>806</ele>
        <time>2026-07-12T18:28:21.000Z</time>
      </trkpt>
      <trkpt lat="44.11269" lon="5.28234">
        <ele>806</ele>
        <time>2026-07-12T18:28:33.000Z</time>
      </trkpt>
      <trkpt lat="44.11273" lon="5.28248">
        <ele>806</ele>
        <time>2026-07-12T18:28:45.000Z</time>
      </trkpt>
      <trkpt lat="44.11283" lon="5.2826">
        <ele>808</ele>
        <time>2026-07-12T18:29:21.000Z</time>
      </trkpt>
      <trkpt lat="44.1129" lon="5.28273">
        <ele>816</ele>
        <time>2026-07-12T18:30:57.000Z</time>
      </trkpt>
      <trkpt lat="44.11292" lon="5.28289">
        <ele>811</ele>
        <time>2026-07-12T18:31:10.000Z</time>
      </trkpt>
      <trkpt lat="44.11289" lon="5.28299">
        <ele>810</ele>
        <time>2026-07-12T18:31:19.000Z</time>
      </trkpt>
      <trkpt lat="44.11288" lon="5.28311">
        <ele>811</ele>
        <time>2026-07-12T18:31:39.000Z</time>
      </trkpt>
      <trkpt lat="44.11292" lon="5.28327">
        <ele>812</ele>
        <time>2026-07-12T18:32:03.000Z</time>
      </trkpt>
      <trkpt lat="44.11304" lon="5.28346">
        <ele>814</ele>
        <time>2026-07-12T18:32:44.000Z</time>
      </trkpt>
      <trkpt lat="44.11305" lon="5.2836">
        <ele>815</ele>
        <time>2026-07-12T18:33:06.000Z</time>
      </trkpt>
      <trkpt lat="44.11316" lon="5.28387">
        <ele>816</ele>
        <time>2026-07-12T18:33:42.000Z</time>
      </trkpt>
      <trkpt lat="44.11326" lon="5.28398">
        <ele>819</ele>
        <time>2026-07-12T18:34:27.000Z</time>
      </trkpt>
      <trkpt lat="44.11332" lon="5.28425">
        <ele>820</ele>
        <time>2026-07-12T18:35:01.000Z</time>
      </trkpt>
      <trkpt lat="44.11345" lon="5.28438">
        <ele>821</ele>
        <time>2026-07-12T18:35:30.000Z</time>
      </trkpt>
      <trkpt lat="44.11354" lon="5.28457">
        <ele>823</ele>
        <time>2026-07-12T18:36:09.000Z</time>
      </trkpt>
      <trkpt lat="44.11358" lon="5.28473">
        <ele>823</ele>
        <time>2026-07-12T18:36:23.000Z</time>
      </trkpt>
      <trkpt lat="44.11366" lon="5.28523">
        <ele>828</ele>
        <time>2026-07-12T18:37:57.000Z</time>
      </trkpt>
      <trkpt lat="44.11369" lon="5.28538">
        <ele>828</ele>
        <time>2026-07-12T18:38:10.000Z</time>
      </trkpt>
      <trkpt lat="44.11375" lon="5.28548">
        <ele>829</ele>
        <time>2026-07-12T18:38:31.000Z</time>
      </trkpt>
      <trkpt lat="44.11386" lon="5.28564">
        <ele>831</ele>
        <time>2026-07-12T18:39:10.000Z</time>
      </trkpt>
      <trkpt lat="44.11393" lon="5.2858">
        <ele>831</ele>
        <time>2026-07-12T18:39:25.000Z</time>
      </trkpt>
      <trkpt lat="44.11395" lon="5.28596">
        <ele>831</ele>
        <time>2026-07-12T18:39:38.000Z</time>
      </trkpt>
      <trkpt lat="44.11393" lon="5.28603">
        <ele>832</ele>
        <time>2026-07-12T18:39:54.000Z</time>
      </trkpt>
      <trkpt lat="44.11393" lon="5.28611">
        <ele>832</ele>
        <time>2026-07-12T18:40:01.000Z</time>
      </trkpt>
      <trkpt lat="44.11396" lon="5.2862">
        <ele>833</ele>
        <time>2026-07-12T18:40:19.000Z</time>
      </trkpt>
      <trkpt lat="44.11394" lon="5.28634">
        <ele>834</ele>
        <time>2026-07-12T18:40:41.000Z</time>
      </trkpt>
      <trkpt lat="44.11392" lon="5.28651">
        <ele>834</ele>
        <time>2026-07-12T18:40:55.000Z</time>
      </trkpt>
      <trkpt lat="44.11379" lon="5.28686">
        <ele>840</ele>
        <time>2026-07-12T18:42:29.000Z</time>
      </trkpt>
      <trkpt lat="44.11373" lon="5.28694">
        <ele>839</ele>
        <time>2026-07-12T18:42:39.000Z</time>
      </trkpt>
      <trkpt lat="44.11365" lon="5.28709">
        <ele>840</ele>
        <time>2026-07-12T18:43:05.000Z</time>
      </trkpt>
      <trkpt lat="44.11363" lon="5.28715">
        <ele>840</ele>
        <time>2026-07-12T18:43:10.000Z</time>
      </trkpt>
      <trkpt lat="44.11364" lon="5.28724">
        <ele>843</ele>
        <time>2026-07-12T18:43:48.000Z</time>
      </trkpt>
      <trkpt lat="44.11368" lon="5.28736">
        <ele>846</ele>
        <time>2026-07-12T18:44:30.000Z</time>
      </trkpt>
      <trkpt lat="44.11381" lon="5.28753">
        <ele>843</ele>
        <time>2026-07-12T18:44:50.000Z</time>
      </trkpt>
      <trkpt lat="44.11391" lon="5.28778">
        <ele>843</ele>
        <time>2026-07-12T18:45:14.000Z</time>
      </trkpt>
      <trkpt lat="44.114" lon="5.2879">
        <ele>844</ele>
        <time>2026-07-12T18:45:39.000Z</time>
      </trkpt>
      <trkpt lat="44.11405" lon="5.28804">
        <ele>844</ele>
        <time>2026-07-12T18:45:52.000Z</time>
      </trkpt>
      <trkpt lat="44.11423" lon="5.28863">
        <ele>848</ele>
        <time>2026-07-12T18:47:26.000Z</time>
      </trkpt>
      <trkpt lat="44.11428" lon="5.2888">
        <ele>850</ele>
        <time>2026-07-12T18:48:02.000Z</time>
      </trkpt>
      <trkpt lat="44.11429" lon="5.28899">
        <ele>850</ele>
        <time>2026-07-12T18:48:18.000Z</time>
      </trkpt>
      <trkpt lat="44.11432" lon="5.28922">
        <ele>851</ele>
        <time>2026-07-12T18:48:47.000Z</time>
      </trkpt>
      <trkpt lat="44.11438" lon="5.28943">
        <ele>851</ele>
        <time>2026-07-12T18:49:06.000Z</time>
      </trkpt>
      <trkpt lat="44.11443" lon="5.29021">
        <ele>855</ele>
        <time>2026-07-12T18:50:52.000Z</time>
      </trkpt>
      <trkpt lat="44.11447" lon="5.29052">
        <ele>856</ele>
        <time>2026-07-12T18:51:28.000Z</time>
      </trkpt>
      <trkpt lat="44.11448" lon="5.29085">
        <ele>858</ele>
        <time>2026-07-12T18:52:16.000Z</time>
      </trkpt>
      <trkpt lat="44.11451" lon="5.29116">
        <ele>861</ele>
        <time>2026-07-12T18:53:13.000Z</time>
      </trkpt>
      <trkpt lat="44.11454" lon="5.29129">
        <ele>863</ele>
        <time>2026-07-12T18:53:45.000Z</time>
      </trkpt>
      <trkpt lat="44.1146" lon="5.29144">
        <ele>864</ele>
        <time>2026-07-12T18:54:09.000Z</time>
      </trkpt>
      <trkpt lat="44.11462" lon="5.2916">
        <ele>864</ele>
        <time>2026-07-12T18:54:22.000Z</time>
      </trkpt>
      <trkpt lat="44.11465" lon="5.29167">
        <ele>865</ele>
        <time>2026-07-12T18:54:39.000Z</time>
      </trkpt>
      <trkpt lat="44.1147" lon="5.29171">
        <ele>866</ele>
        <time>2026-07-12T18:54:56.000Z</time>
      </trkpt>
      <trkpt lat="44.11476" lon="5.29183">
        <ele>868</ele>
        <time>2026-07-12T18:55:29.000Z</time>
      </trkpt>
      <trkpt lat="44.11483" lon="5.29195">
        <ele>870</ele>
        <time>2026-07-12T18:56:02.000Z</time>
      </trkpt>
      <trkpt lat="44.11491" lon="5.29211">
        <ele>874</ele>
        <time>2026-07-12T18:56:59.000Z</time>
      </trkpt>
      <trkpt lat="44.1149" lon="5.29223">
        <ele>873</ele>
        <time>2026-07-12T18:57:09.000Z</time>
      </trkpt>
      <trkpt lat="44.11496" lon="5.29254">
        <ele>873</ele>
        <time>2026-07-12T18:57:35.000Z</time>
      </trkpt>
      <trkpt lat="44.1151" lon="5.29308">
        <ele>875</ele>
        <time>2026-07-12T18:58:43.000Z</time>
      </trkpt>
      <trkpt lat="44.11535" lon="5.29365">
        <ele>880</ele>
        <time>2026-07-12T19:00:29.000Z</time>
      </trkpt>
      <trkpt lat="44.11541" lon="5.29382">
        <ele>881</ele>
        <time>2026-07-12T19:00:55.000Z</time>
      </trkpt>
      <trkpt lat="44.11546" lon="5.294">
        <ele>882</ele>
        <time>2026-07-12T19:01:21.000Z</time>
      </trkpt>
      <trkpt lat="44.11555" lon="5.2942">
        <ele>882</ele>
        <time>2026-07-12T19:01:40.000Z</time>
      </trkpt>
      <trkpt lat="44.1156" lon="5.29449">
        <ele>882</ele>
        <time>2026-07-12T19:02:05.000Z</time>
      </trkpt>
      <trkpt lat="44.11563" lon="5.29463">
        <ele>883</ele>
        <time>2026-07-12T19:02:27.000Z</time>
      </trkpt>
      <trkpt lat="44.11578" lon="5.29492">
        <ele>885</ele>
        <time>2026-07-12T19:03:17.000Z</time>
      </trkpt>
      <trkpt lat="44.1159" lon="5.29508">
        <ele>887</ele>
        <time>2026-07-12T19:03:57.000Z</time>
      </trkpt>
      <trkpt lat="44.11597" lon="5.29525">
        <ele>888</ele>
        <time>2026-07-12T19:04:23.000Z</time>
      </trkpt>
      <trkpt lat="44.11598" lon="5.29547">
        <ele>887</ele>
        <time>2026-07-12T19:04:41.000Z</time>
      </trkpt>
      <trkpt lat="44.11598" lon="5.2957">
        <ele>888</ele>
        <time>2026-07-12T19:05:10.000Z</time>
      </trkpt>
      <trkpt lat="44.11594" lon="5.29613">
        <ele>890</ele>
        <time>2026-07-12T19:06:06.000Z</time>
      </trkpt>
      <trkpt lat="44.11594" lon="5.29629">
        <ele>892</ele>
        <time>2026-07-12T19:06:40.000Z</time>
      </trkpt>
      <trkpt lat="44.11602" lon="5.2966">
        <ele>893</ele>
        <time>2026-07-12T19:07:17.000Z</time>
      </trkpt>
      <trkpt lat="44.1162" lon="5.29693">
        <ele>895</ele>
        <time>2026-07-12T19:08:12.000Z</time>
      </trkpt>
      <trkpt lat="44.1163" lon="5.29714">
        <ele>896</ele>
        <time>2026-07-12T19:08:43.000Z</time>
      </trkpt>
      <trkpt lat="44.11636" lon="5.29732">
        <ele>896</ele>
        <time>2026-07-12T19:08:59.000Z</time>
      </trkpt>
      <trkpt lat="44.11661" lon="5.29808">
        <ele>900</ele>
        <time>2026-07-12T19:10:49.000Z</time>
      </trkpt>
      <trkpt lat="44.11677" lon="5.29863">
        <ele>903</ele>
        <time>2026-07-12T19:12:09.000Z</time>
      </trkpt>
      <trkpt lat="44.11694" lon="5.29918">
        <ele>906</ele>
        <time>2026-07-12T19:13:29.000Z</time>
      </trkpt>
      <trkpt lat="44.11725" lon="5.30007">
        <ele>910</ele>
        <time>2026-07-12T19:15:31.000Z</time>
      </trkpt>
      <trkpt lat="44.11739" lon="5.30053">
        <ele>912</ele>
        <time>2026-07-12T19:16:33.000Z</time>
      </trkpt>
      <trkpt lat="44.11748" lon="5.30099">
        <ele>914</ele>
        <time>2026-07-12T19:17:33.000Z</time>
      </trkpt>
      <trkpt lat="44.11764" lon="5.30135">
        <ele>916</ele>
        <time>2026-07-12T19:18:28.000Z</time>
      </trkpt>
      <trkpt lat="44.11773" lon="5.30176">
        <ele>919</ele>
        <time>2026-07-12T19:19:34.000Z</time>
      </trkpt>
      <trkpt lat="44.11782" lon="5.30227">
        <ele>920</ele>
        <time>2026-07-12T19:20:27.000Z</time>
      </trkpt>
      <trkpt lat="44.11799" lon="5.30313">
        <ele>925</ele>
        <time>2026-07-12T19:22:32.000Z</time>
      </trkpt>
      <trkpt lat="44.11798" lon="5.30349">
        <ele>927</ele>
        <time>2026-07-12T19:23:22.000Z</time>
      </trkpt>
      <trkpt lat="44.11793" lon="5.3038">
        <ele>927</ele>
        <time>2026-07-12T19:23:48.000Z</time>
      </trkpt>
      <trkpt lat="44.11782" lon="5.30424">
        <ele>929</ele>
        <time>2026-07-12T19:24:47.000Z</time>
      </trkpt>
      <trkpt lat="44.11767" lon="5.30465">
        <ele>931</ele>
        <time>2026-07-12T19:25:45.000Z</time>
      </trkpt>
      <trkpt lat="44.11759" lon="5.3049">
        <ele>933</ele>
        <time>2026-07-12T19:26:28.000Z</time>
      </trkpt>
      <trkpt lat="44.11757" lon="5.30513">
        <ele>935</ele>
        <time>2026-07-12T19:27:08.000Z</time>
      </trkpt>
      <trkpt lat="44.11755" lon="5.30599">
        <ele>938</ele>
        <time>2026-07-12T19:28:50.000Z</time>
      </trkpt>
      <trkpt lat="44.11764" lon="5.30668">
        <ele>942</ele>
        <time>2026-07-12T19:30:29.000Z</time>
      </trkpt>
      <trkpt lat="44.11815" lon="5.30796">
        <ele>947</ele>
        <time>2026-07-12T19:33:21.000Z</time>
      </trkpt>
      <trkpt lat="44.11825" lon="5.30807">
        <ele>950</ele>
        <time>2026-07-12T19:34:06.000Z</time>
      </trkpt>
      <trkpt lat="44.11832" lon="5.30812">
        <ele>949</ele>
        <time>2026-07-12T19:34:15.000Z</time>
      </trkpt>
      <trkpt lat="44.11842" lon="5.30815">
        <ele>950</ele>
        <time>2026-07-12T19:34:37.000Z</time>
      </trkpt>
      <trkpt lat="44.11846" lon="5.30821">
        <ele>950</ele>
        <time>2026-07-12T19:34:44.000Z</time>
      </trkpt>
      <trkpt lat="44.11862" lon="5.30818">
        <ele>950</ele>
        <time>2026-07-12T19:35:02.000Z</time>
      </trkpt>
      <trkpt lat="44.11875" lon="5.30822">
        <ele>951</ele>
        <time>2026-07-12T19:35:28.000Z</time>
      </trkpt>
      <trkpt lat="44.11898" lon="5.30837">
        <ele>953</ele>
        <time>2026-07-12T19:36:18.000Z</time>
      </trkpt>
      <trkpt lat="44.11934" lon="5.30872">
        <ele>955</ele>
        <time>2026-07-12T19:37:29.000Z</time>
      </trkpt>
      <trkpt lat="44.11975" lon="5.30902">
        <ele>959</ele>
        <time>2026-07-12T19:39:03.000Z</time>
      </trkpt>
      <trkpt lat="44.1201" lon="5.30919">
        <ele>961</ele>
        <time>2026-07-12T19:40:06.000Z</time>
      </trkpt>
      <trkpt lat="44.12043" lon="5.30951">
        <ele>964</ele>
        <time>2026-07-12T19:41:23.000Z</time>
      </trkpt>
      <trkpt lat="44.12076" lon="5.30986">
        <ele>966</ele>
        <time>2026-07-12T19:42:31.000Z</time>
      </trkpt>
      <trkpt lat="44.12103" lon="5.31008">
        <ele>968</ele>
        <time>2026-07-12T19:43:27.000Z</time>
      </trkpt>
      <trkpt lat="44.12128" lon="5.3103">
        <ele>971</ele>
        <time>2026-07-12T19:44:32.000Z</time>
      </trkpt>
      <trkpt lat="44.12145" lon="5.31056">
        <ele>974</ele>
        <time>2026-07-12T19:45:32.000Z</time>
      </trkpt>
      <trkpt lat="44.12165" lon="5.31093">
        <ele>976</ele>
        <time>2026-07-12T19:46:31.000Z</time>
      </trkpt>
      <trkpt lat="44.12194" lon="5.31122">
        <ele>978</ele>
        <time>2026-07-12T19:47:32.000Z</time>
      </trkpt>
      <trkpt lat="44.12229" lon="5.31151">
        <ele>982</ele>
        <time>2026-07-12T19:49:00.000Z</time>
      </trkpt>
      <trkpt lat="44.12252" lon="5.31185">
        <ele>984</ele>
        <time>2026-07-12T19:49:59.000Z</time>
      </trkpt>
      <trkpt lat="44.12267" lon="5.31218">
        <ele>986</ele>
        <time>2026-07-12T19:50:52.000Z</time>
      </trkpt>
      <trkpt lat="44.12287" lon="5.31237">
        <ele>988</ele>
        <time>2026-07-12T19:51:40.000Z</time>
      </trkpt>
      <trkpt lat="44.12309" lon="5.31252">
        <ele>990</ele>
        <time>2026-07-12T19:52:29.000Z</time>
      </trkpt>
      <trkpt lat="44.12325" lon="5.31282">
        <ele>993</ele>
        <time>2026-07-12T19:53:31.000Z</time>
      </trkpt>
      <trkpt lat="44.12361" lon="5.31343">
        <ele>998</ele>
        <time>2026-07-12T19:55:27.000Z</time>
      </trkpt>
      <trkpt lat="44.12375" lon="5.31374">
        <ele>1002</ele>
        <time>2026-07-12T19:56:38.000Z</time>
      </trkpt>
      <trkpt lat="44.1239" lon="5.31405">
        <ele>1004</ele>
        <time>2026-07-12T19:57:29.000Z</time>
      </trkpt>
      <trkpt lat="44.12416" lon="5.31431">
        <ele>1007</ele>
        <time>2026-07-12T19:58:37.000Z</time>
      </trkpt>
      <trkpt lat="44.12436" lon="5.31454">
        <ele>1011</ele>
        <time>2026-07-12T19:59:48.000Z</time>
      </trkpt>
      <trkpt lat="44.1246" lon="5.31472">
        <ele>1016</ele>
        <time>2026-07-12T20:01:11.000Z</time>
      </trkpt>
      <trkpt lat="44.12492" lon="5.31487">
        <ele>1020</ele>
        <time>2026-07-12T20:02:31.000Z</time>
      </trkpt>
      <trkpt lat="44.12522" lon="5.31506">
        <ele>1022</ele>
        <time>2026-07-12T20:03:29.000Z</time>
      </trkpt>
      <trkpt lat="44.12539" lon="5.31513">
        <ele>1023</ele>
        <time>2026-07-12T20:04:00.000Z</time>
      </trkpt>
      <trkpt lat="44.12556" lon="5.31516">
        <ele>1024</ele>
        <time>2026-07-12T20:04:30.000Z</time>
      </trkpt>
      <trkpt lat="44.12566" lon="5.31515">
        <ele>1024</ele>
        <time>2026-07-12T20:04:41.000Z</time>
      </trkpt>
      <trkpt lat="44.1257" lon="5.31517">
        <ele>1025</ele>
        <time>2026-07-12T20:04:56.000Z</time>
      </trkpt>
      <trkpt lat="44.12574" lon="5.31524">
        <ele>1025</ele>
        <time>2026-07-12T20:05:03.000Z</time>
      </trkpt>
      <trkpt lat="44.12583" lon="5.31544">
        <ele>1026</ele>
        <time>2026-07-12T20:05:33.000Z</time>
      </trkpt>
      <trkpt lat="44.12588" lon="5.31549">
        <ele>1026</ele>
        <time>2026-07-12T20:05:40.000Z</time>
      </trkpt>
      <trkpt lat="44.12645" lon="5.31555">
        <ele>1033</ele>
        <time>2026-07-12T20:07:57.000Z</time>
      </trkpt>
      <trkpt lat="44.12704" lon="5.31556">
        <ele>1038</ele>
        <time>2026-07-12T20:09:56.000Z</time>
      </trkpt>
      <trkpt lat="44.12763" lon="5.31554">
        <ele>1043</ele>
        <time>2026-07-12T20:11:55.000Z</time>
      </trkpt>
      <trkpt lat="44.12839" lon="5.31543">
        <ele>1051</ele>
        <time>2026-07-12T20:14:45.000Z</time>
      </trkpt>
      <trkpt lat="44.12849" lon="5.3154">
        <ele>1053</ele>
        <time>2026-07-12T20:15:17.000Z</time>
      </trkpt>
      <trkpt lat="44.12856" lon="5.31536">
        <ele>1054</ele>
        <time>2026-07-12T20:15:36.000Z</time>
      </trkpt>
      <trkpt lat="44.12862" lon="5.31529">
        <ele>1054</ele>
        <time>2026-07-12T20:15:45.000Z</time>
      </trkpt>
      <trkpt lat="44.1287" lon="5.31516">
        <ele>1055</ele>
        <time>2026-07-12T20:16:09.000Z</time>
      </trkpt>
      <trkpt lat="44.12877" lon="5.31498">
        <ele>1057</ele>
        <time>2026-07-12T20:16:46.000Z</time>
      </trkpt>
      <trkpt lat="44.129" lon="5.31432">
        <ele>1065</ele>
        <time>2026-07-12T20:19:09.000Z</time>
      </trkpt>
      <trkpt lat="44.12911" lon="5.31405">
        <ele>1068</ele>
        <time>2026-07-12T20:20:05.000Z</time>
      </trkpt>
      <trkpt lat="44.1292" lon="5.31391">
        <ele>1070</ele>
        <time>2026-07-12T20:20:41.000Z</time>
      </trkpt>
      <trkpt lat="44.12927" lon="5.31383">
        <ele>1071</ele>
        <time>2026-07-12T20:21:02.000Z</time>
      </trkpt>
      <trkpt lat="44.12938" lon="5.31379">
        <ele>1072</ele>
        <time>2026-07-12T20:21:25.000Z</time>
      </trkpt>
      <trkpt lat="44.12956" lon="5.31379">
        <ele>1074</ele>
        <time>2026-07-12T20:22:06.000Z</time>
      </trkpt>
      <trkpt lat="44.12971" lon="5.31382">
        <ele>1076</ele>
        <time>2026-07-12T20:22:44.000Z</time>
      </trkpt>
      <trkpt lat="44.12988" lon="5.31389">
        <ele>1078</ele>
        <time>2026-07-12T20:23:25.000Z</time>
      </trkpt>
      <trkpt lat="44.13005" lon="5.31399">
        <ele>1080</ele>
        <time>2026-07-12T20:24:07.000Z</time>
      </trkpt>
      <trkpt lat="44.13038" lon="5.31421">
        <ele>1084</ele>
        <time>2026-07-12T20:25:30.000Z</time>
      </trkpt>
      <trkpt lat="44.13085" lon="5.31464">
        <ele>1091</ele>
        <time>2026-07-12T20:27:46.000Z</time>
      </trkpt>
      <trkpt lat="44.13141" lon="5.31521">
        <ele>1099</ele>
        <time>2026-07-12T20:30:28.000Z</time>
      </trkpt>
      <trkpt lat="44.13181" lon="5.31556">
        <ele>1105</ele>
        <time>2026-07-12T20:32:24.000Z</time>
      </trkpt>
      <trkpt lat="44.13241" lon="5.31592">
        <ele>1112</ele>
        <time>2026-07-12T20:34:51.000Z</time>
      </trkpt>
      <trkpt lat="44.13257" lon="5.31599">
        <ele>1113</ele>
        <time>2026-07-12T20:35:20.000Z</time>
      </trkpt>
      <trkpt lat="44.13272" lon="5.31602">
        <ele>1115</ele>
        <time>2026-07-12T20:35:58.000Z</time>
      </trkpt>
      <trkpt lat="44.13301" lon="5.31611">
        <ele>1119</ele>
        <time>2026-07-12T20:37:13.000Z</time>
      </trkpt>
      <trkpt lat="44.13317" lon="5.31623">
        <ele>1120</ele>
        <time>2026-07-12T20:37:44.000Z</time>
      </trkpt>
      <trkpt lat="44.13328" lon="5.31637">
        <ele>1122</ele>
        <time>2026-07-12T20:38:22.000Z</time>
      </trkpt>
      <trkpt lat="44.1334" lon="5.31657">
        <ele>1123</ele>
        <time>2026-07-12T20:38:54.000Z</time>
      </trkpt>
      <trkpt lat="44.13354" lon="5.31676">
        <ele>1124</ele>
        <time>2026-07-12T20:39:27.000Z</time>
      </trkpt>
      <trkpt lat="44.13369" lon="5.31687">
        <ele>1126</ele>
        <time>2026-07-12T20:40:07.000Z</time>
      </trkpt>
      <trkpt lat="44.13383" lon="5.31692">
        <ele>1127</ele>
        <time>2026-07-12T20:40:34.000Z</time>
      </trkpt>
      <trkpt lat="44.13404" lon="5.31695">
        <ele>1129</ele>
        <time>2026-07-12T20:41:19.000Z</time>
      </trkpt>
      <trkpt lat="44.13519" lon="5.31691">
        <ele>1142</ele>
        <time>2026-07-12T20:45:44.000Z</time>
      </trkpt>
      <trkpt lat="44.13553" lon="5.31699">
        <ele>1145</ele>
        <time>2026-07-12T20:46:54.000Z</time>
      </trkpt>
      <trkpt lat="44.13582" lon="5.3171">
        <ele>1147</ele>
        <time>2026-07-12T20:47:49.000Z</time>
      </trkpt>
      <trkpt lat="44.13636" lon="5.31735">
        <ele>1152</ele>
        <time>2026-07-12T20:49:46.000Z</time>
      </trkpt>
      <trkpt lat="44.13658" lon="5.31753">
        <ele>1155</ele>
        <time>2026-07-12T20:50:46.000Z</time>
      </trkpt>
      <trkpt lat="44.13663" lon="5.31766">
        <ele>1155</ele>
        <time>2026-07-12T20:50:58.000Z</time>
      </trkpt>
      <trkpt lat="44.13667" lon="5.31781">
        <ele>1156</ele>
        <time>2026-07-12T20:51:21.000Z</time>
      </trkpt>
      <trkpt lat="44.1367" lon="5.31801">
        <ele>1158</ele>
        <time>2026-07-12T20:51:58.000Z</time>
      </trkpt>
      <trkpt lat="44.13676" lon="5.31825">
        <ele>1158</ele>
        <time>2026-07-12T20:52:19.000Z</time>
      </trkpt>
      <trkpt lat="44.13676" lon="5.31825">
        <ele>1158</ele>
        <time>2026-07-12T20:52:19.000Z</time>
      </trkpt>
      <trkpt lat="44.13679" lon="5.3184">
        <ele>1160</ele>
        <time>2026-07-12T20:52:52.000Z</time>
      </trkpt>
      <trkpt lat="44.1368" lon="5.31844">
        <ele>1160</ele>
        <time>2026-07-12T20:52:55.000Z</time>
      </trkpt>
      <trkpt lat="44.13688" lon="5.31813">
        <ele>1160</ele>
        <time>2026-07-12T20:53:22.000Z</time>
      </trkpt>
      <trkpt lat="44.13689" lon="5.31803">
        <ele>1161</ele>
        <time>2026-07-12T20:53:41.000Z</time>
      </trkpt>
      <trkpt lat="44.13689" lon="5.31785">
        <ele>1161</ele>
        <time>2026-07-12T20:53:56.000Z</time>
      </trkpt>
      <trkpt lat="44.13687" lon="5.31776">
        <ele>1160</ele>
        <time>2026-07-12T20:54:04.000Z</time>
      </trkpt>
      <trkpt lat="44.13677" lon="5.31743">
        <ele>1160</ele>
        <time>2026-07-12T20:54:33.000Z</time>
      </trkpt>
      <trkpt lat="44.13672" lon="5.31733">
        <ele>1161</ele>
        <time>2026-07-12T20:54:53.000Z</time>
      </trkpt>
      <trkpt lat="44.13667" lon="5.31725">
        <ele>1162</ele>
        <time>2026-07-12T20:55:12.000Z</time>
      </trkpt>
      <trkpt lat="44.1365" lon="5.31708">
        <ele>1160</ele>
        <time>2026-07-12T20:55:36.000Z</time>
      </trkpt>
      <trkpt lat="44.1361" lon="5.31679">
        <ele>1160</ele>
        <time>2026-07-12T20:56:28.000Z</time>
      </trkpt>
      <trkpt lat="44.13548" lon="5.31638">
        <ele>1160</ele>
        <time>2026-07-12T20:57:47.000Z</time>
      </trkpt>
      <trkpt lat="44.13534" lon="5.31632">
        <ele>1160</ele>
        <time>2026-07-12T20:58:04.000Z</time>
      </trkpt>
      <trkpt lat="44.13507" lon="5.31625">
        <ele>1158</ele>
        <time>2026-07-12T20:58:35.000Z</time>
      </trkpt>
      <trkpt lat="44.13468" lon="5.31612">
        <ele>1158</ele>
        <time>2026-07-12T20:59:21.000Z</time>
      </trkpt>
      <trkpt lat="44.13436" lon="5.31599">
        <ele>1158</ele>
        <time>2026-07-12T20:59:59.000Z</time>
      </trkpt>
      <trkpt lat="44.13411" lon="5.31584">
        <ele>1157</ele>
        <time>2026-07-12T21:00:30.000Z</time>
      </trkpt>
      <trkpt lat="44.13377" lon="5.31554">
        <ele>1160</ele>
        <time>2026-07-12T21:01:47.000Z</time>
      </trkpt>
      <trkpt lat="44.1332" lon="5.31506">
        <ele>1157</ele>
        <time>2026-07-12T21:03:03.000Z</time>
      </trkpt>
      <trkpt lat="44.13273" lon="5.31474">
        <ele>1154</ele>
        <time>2026-07-12T21:04:03.000Z</time>
      </trkpt>
      <trkpt lat="44.13237" lon="5.31452">
        <ele>1151</ele>
        <time>2026-07-12T21:04:48.000Z</time>
      </trkpt>
      <trkpt lat="44.13209" lon="5.31428">
        <ele>1151</ele>
        <time>2026-07-12T21:05:26.000Z</time>
      </trkpt>
      <trkpt lat="44.13189" lon="5.31405">
        <ele>1148</ele>
        <time>2026-07-12T21:05:56.000Z</time>
      </trkpt>
      <trkpt lat="44.13174" lon="5.3138">
        <ele>1149</ele>
        <time>2026-07-12T21:06:33.000Z</time>
      </trkpt>
      <trkpt lat="44.13142" lon="5.31338">
        <ele>1147</ele>
        <time>2026-07-12T21:07:23.000Z</time>
      </trkpt>
      <trkpt lat="44.13092" lon="5.31292">
        <ele>1147</ele>
        <time>2026-07-12T21:08:32.000Z</time>
      </trkpt>
      <trkpt lat="44.13036" lon="5.3125">
        <ele>1141</ele>
        <time>2026-07-12T21:09:45.000Z</time>
      </trkpt>
      <trkpt lat="44.12997" lon="5.31227">
        <ele>1139</ele>
        <time>2026-07-12T21:10:33.000Z</time>
      </trkpt>
      <trkpt lat="44.1298" lon="5.31218">
        <ele>1138</ele>
        <time>2026-07-12T21:10:54.000Z</time>
      </trkpt>
      <trkpt lat="44.12961" lon="5.31209">
        <ele>1137</ele>
        <time>2026-07-12T21:11:17.000Z</time>
      </trkpt>
      <trkpt lat="44.12935" lon="5.31191">
        <ele>1136</ele>
        <time>2026-07-12T21:11:50.000Z</time>
      </trkpt>
      <trkpt lat="44.12928" lon="5.31186">
        <ele>1135</ele>
        <time>2026-07-12T21:11:59.000Z</time>
      </trkpt>
      <trkpt lat="44.12929" lon="5.3116">
        <ele>1135</ele>
        <time>2026-07-12T21:12:20.000Z</time>
      </trkpt>
      <trkpt lat="44.12933" lon="5.31128">
        <ele>1135</ele>
        <time>2026-07-12T21:12:47.000Z</time>
      </trkpt>
      <trkpt lat="44.12942" lon="5.31101">
        <ele>1134</ele>
        <time>2026-07-12T21:13:11.000Z</time>
      </trkpt>
      <trkpt lat="44.12955" lon="5.31075">
        <ele>1134</ele>
        <time>2026-07-12T21:13:37.000Z</time>
      </trkpt>
      <trkpt lat="44.13146" lon="5.30838">
        <ele>1136</ele>
        <time>2026-07-12T21:18:50.000Z</time>
      </trkpt>
      <trkpt lat="44.13191" lon="5.30794">
        <ele>1133</ele>
        <time>2026-07-12T21:19:53.000Z</time>
      </trkpt>
      <trkpt lat="44.13209" lon="5.30777">
        <ele>1132</ele>
        <time>2026-07-12T21:20:18.000Z</time>
      </trkpt>
      <trkpt lat="44.1322" lon="5.30766">
        <ele>1132</ele>
        <time>2026-07-12T21:20:34.000Z</time>
      </trkpt>
      <trkpt lat="44.13223" lon="5.30762">
        <ele>1132</ele>
        <time>2026-07-12T21:20:39.000Z</time>
      </trkpt>
      <trkpt lat="44.13225" lon="5.30756">
        <ele>1132</ele>
        <time>2026-07-12T21:20:44.000Z</time>
      </trkpt>
      <trkpt lat="44.13226" lon="5.30745">
        <ele>1132</ele>
        <time>2026-07-12T21:20:53.000Z</time>
      </trkpt>
      <trkpt lat="44.13227" lon="5.3073">
        <ele>1133</ele>
        <time>2026-07-12T21:21:16.000Z</time>
      </trkpt>
      <trkpt lat="44.13225" lon="5.30714">
        <ele>1133</ele>
        <time>2026-07-12T21:21:29.000Z</time>
      </trkpt>
      <trkpt lat="44.13213" lon="5.30652">
        <ele>1133</ele>
        <time>2026-07-12T21:22:22.000Z</time>
      </trkpt>
      <trkpt lat="44.13204" lon="5.30622">
        <ele>1134</ele>
        <time>2026-07-12T21:22:59.000Z</time>
      </trkpt>
      <trkpt lat="44.13171" lon="5.30523">
        <ele>1134</ele>
        <time>2026-07-12T21:24:29.000Z</time>
      </trkpt>
      <trkpt lat="44.13165" lon="5.30497">
        <ele>1134</ele>
        <time>2026-07-12T21:24:51.000Z</time>
      </trkpt>
      <trkpt lat="44.13156" lon="5.30453">
        <ele>1135</ele>
        <time>2026-07-12T21:25:39.000Z</time>
      </trkpt>
      <trkpt lat="44.13149" lon="5.30417">
        <ele>1135</ele>
        <time>2026-07-12T21:26:10.000Z</time>
      </trkpt>
      <trkpt lat="44.13139" lon="5.30346">
        <ele>1136</ele>
        <time>2026-07-12T21:27:20.000Z</time>
      </trkpt>
      <trkpt lat="44.13136" lon="5.30313">
        <ele>1136</ele>
        <time>2026-07-12T21:27:47.000Z</time>
      </trkpt>
      <trkpt lat="44.13137" lon="5.3028">
        <ele>1136</ele>
        <time>2026-07-12T21:28:14.000Z</time>
      </trkpt>
      <trkpt lat="44.13138" lon="5.30229">
        <ele>1136</ele>
        <time>2026-07-12T21:28:56.000Z</time>
      </trkpt>
      <trkpt lat="44.13132" lon="5.30147">
        <ele>1137</ele>
        <time>2026-07-12T21:30:14.000Z</time>
      </trkpt>
      <trkpt lat="44.13123" lon="5.30099">
        <ele>1137</ele>
        <time>2026-07-12T21:30:55.000Z</time>
      </trkpt>
      <trkpt lat="44.13111" lon="5.30064">
        <ele>1138</ele>
        <time>2026-07-12T21:31:37.000Z</time>
      </trkpt>
      <trkpt lat="44.13065" lon="5.29992">
        <ele>1137</ele>
        <time>2026-07-12T21:32:56.000Z</time>
      </trkpt>
      <trkpt lat="44.13048" lon="5.29937">
        <ele>1137</ele>
        <time>2026-07-12T21:33:46.000Z</time>
      </trkpt>
      <trkpt lat="44.13045" lon="5.2991">
        <ele>1136</ele>
        <time>2026-07-12T21:34:08.000Z</time>
      </trkpt>
      <trkpt lat="44.13048" lon="5.29889">
        <ele>1136</ele>
        <time>2026-07-12T21:34:25.000Z</time>
      </trkpt>
      <trkpt lat="44.13056" lon="5.29865">
        <ele>1137</ele>
        <time>2026-07-12T21:34:57.000Z</time>
      </trkpt>
      <trkpt lat="44.13082" lon="5.29822">
        <ele>1136</ele>
        <time>2026-07-12T21:35:44.000Z</time>
      </trkpt>
      <trkpt lat="44.13125" lon="5.29768">
        <ele>1136</ele>
        <time>2026-07-12T21:36:50.000Z</time>
      </trkpt>
      <trkpt lat="44.13162" lon="5.29738">
        <ele>1136</ele>
        <time>2026-07-12T21:37:39.000Z</time>
      </trkpt>
      <trkpt lat="44.13229" lon="5.29688">
        <ele>1138</ele>
        <time>2026-07-12T21:39:27.000Z</time>
      </trkpt>
      <trkpt lat="44.13245" lon="5.2968">
        <ele>1139</ele>
        <time>2026-07-12T21:39:56.000Z</time>
      </trkpt>
      <trkpt lat="44.13264" lon="5.29675">
        <ele>1139</ele>
        <time>2026-07-12T21:40:18.000Z</time>
      </trkpt>
      <trkpt lat="44.13279" lon="5.29675">
        <ele>1140</ele>
        <time>2026-07-12T21:40:46.000Z</time>
      </trkpt>
      <trkpt lat="44.13294" lon="5.29678">
        <ele>1140</ele>
        <time>2026-07-12T21:41:03.000Z</time>
      </trkpt>
      <trkpt lat="44.13312" lon="5.29691">
        <ele>1139</ele>
        <time>2026-07-12T21:41:27.000Z</time>
      </trkpt>
      <trkpt lat="44.1339" lon="5.29793">
        <ele>1141</ele>
        <time>2026-07-12T21:43:50.000Z</time>
      </trkpt>
      <trkpt lat="44.13403" lon="5.29817">
        <ele>1141</ele>
        <time>2026-07-12T21:44:15.000Z</time>
      </trkpt>
      <trkpt lat="44.13432" lon="5.29892">
        <ele>1141</ele>
        <time>2026-07-12T21:45:25.000Z</time>
      </trkpt>
      <trkpt lat="44.13445" lon="5.2996">
        <ele>1141</ele>
        <time>2026-07-12T21:46:23.000Z</time>
      </trkpt>
      <trkpt lat="44.1345" lon="5.30001">
        <ele>1142</ele>
        <time>2026-07-12T21:47:08.000Z</time>
      </trkpt>
      <trkpt lat="44.13455" lon="5.3002">
        <ele>1142</ele>
        <time>2026-07-12T21:47:24.000Z</time>
      </trkpt>
      <trkpt lat="44.13462" lon="5.30034">
        <ele>1142</ele>
        <time>2026-07-12T21:47:38.000Z</time>
      </trkpt>
      <trkpt lat="44.13468" lon="5.30038">
        <ele>1142</ele>
        <time>2026-07-12T21:47:46.000Z</time>
      </trkpt>
      <trkpt lat="44.13475" lon="5.30039">
        <ele>1142</ele>
        <time>2026-07-12T21:47:54.000Z</time>
      </trkpt>
      <trkpt lat="44.13472" lon="5.30006">
        <ele>1140</ele>
        <time>2026-07-12T21:48:21.000Z</time>
      </trkpt>
      <trkpt lat="44.13478" lon="5.30003">
        <ele>1140</ele>
        <time>2026-07-12T21:48:28.000Z</time>
      </trkpt>
      <trkpt lat="44.1348" lon="5.29997">
        <ele>1140</ele>
        <time>2026-07-12T21:48:33.000Z</time>
      </trkpt>
      <trkpt lat="44.1348" lon="5.29997">
        <ele>1140</ele>
        <time>2026-07-12T21:48:33.000Z</time>
      </trkpt>
      <trkpt lat="44.13514" lon="5.29894">
        <ele>1148</ele>
        <time>2026-07-12T21:51:28.000Z</time>
      </trkpt>
      <trkpt lat="44.13517" lon="5.29882">
        <ele>1148</ele>
        <time>2026-07-12T21:51:38.000Z</time>
      </trkpt>
      <trkpt lat="44.13519" lon="5.29864">
        <ele>1149</ele>
        <time>2026-07-12T21:52:03.000Z</time>
      </trkpt>
      <trkpt lat="44.13524" lon="5.29814">
        <ele>1150</ele>
        <time>2026-07-12T21:52:55.000Z</time>
      </trkpt>
      <trkpt lat="44.13526" lon="5.29783">
        <ele>1150</ele>
        <time>2026-07-12T21:53:21.000Z</time>
      </trkpt>
      <trkpt lat="44.13527" lon="5.29761">
        <ele>1150</ele>
        <time>2026-07-12T21:53:39.000Z</time>
      </trkpt>
      <trkpt lat="44.13536" lon="5.29694">
        <ele>1152</ele>
        <time>2026-07-12T21:54:56.000Z</time>
      </trkpt>
      <trkpt lat="44.13544" lon="5.29647">
        <ele>1151</ele>
        <time>2026-07-12T21:55:36.000Z</time>
      </trkpt>
      <trkpt lat="44.1355" lon="5.2962">
        <ele>1150</ele>
        <time>2026-07-12T21:55:59.000Z</time>
      </trkpt>
      <trkpt lat="44.13554" lon="5.29606">
        <ele>1149</ele>
        <time>2026-07-12T21:56:11.000Z</time>
      </trkpt>
      <trkpt lat="44.13561" lon="5.29597">
        <ele>1149</ele>
        <time>2026-07-12T21:56:22.000Z</time>
      </trkpt>
      <trkpt lat="44.13565" lon="5.29596">
        <ele>1149</ele>
        <time>2026-07-12T21:56:27.000Z</time>
      </trkpt>
      <trkpt lat="44.13572" lon="5.29598">
        <ele>1148</ele>
        <time>2026-07-12T21:56:35.000Z</time>
      </trkpt>
      <trkpt lat="44.13601" lon="5.29611">
        <ele>1146</ele>
        <time>2026-07-12T21:57:10.000Z</time>
      </trkpt>
      <trkpt lat="44.13639" lon="5.29636">
        <ele>1146</ele>
        <time>2026-07-12T21:57:58.000Z</time>
      </trkpt>
      <trkpt lat="44.13648" lon="5.29638">
        <ele>1146</ele>
        <time>2026-07-12T21:58:08.000Z</time>
      </trkpt>
      <trkpt lat="44.1365" lon="5.29631">
        <ele>1145</ele>
        <time>2026-07-12T21:58:14.000Z</time>
      </trkpt>
      <trkpt lat="44.1365" lon="5.29626">
        <ele>1145</ele>
        <time>2026-07-12T21:58:18.000Z</time>
      </trkpt>
      <trkpt lat="44.13648" lon="5.29622">
        <ele>1145</ele>
        <time>2026-07-12T21:58:22.000Z</time>
      </trkpt>
      <trkpt lat="44.13644" lon="5.29617">
        <ele>1145</ele>
        <time>2026-07-12T21:58:28.000Z</time>
      </trkpt>
      <trkpt lat="44.13626" lon="5.29606">
        <ele>1142</ele>
        <time>2026-07-12T21:58:51.000Z</time>
      </trkpt>
      <trkpt lat="44.13598" lon="5.29571">
        <ele>1139</ele>
        <time>2026-07-12T21:59:34.000Z</time>
      </trkpt>
      <trkpt lat="44.13593" lon="5.29562">
        <ele>1139</ele>
        <time>2026-07-12T21:59:43.000Z</time>
      </trkpt>
      <trkpt lat="44.13591" lon="5.2955">
        <ele>1139</ele>
        <time>2026-07-12T21:59:53.000Z</time>
      </trkpt>
      <trkpt lat="44.13589" lon="5.2953">
        <ele>1140</ele>
        <time>2026-07-12T22:00:20.000Z</time>
      </trkpt>
      <trkpt lat="44.13588" lon="5.29502">
        <ele>1143</ele>
        <time>2026-07-12T22:01:14.000Z</time>
      </trkpt>
      <trkpt lat="44.13578" lon="5.29414">
        <ele>1143</ele>
        <time>2026-07-12T22:02:27.000Z</time>
      </trkpt>
      <trkpt lat="44.13577" lon="5.294">
        <ele>1142</ele>
        <time>2026-07-12T22:02:39.000Z</time>
      </trkpt>
      <trkpt lat="44.13578" lon="5.29374">
        <ele>1143</ele>
        <time>2026-07-12T22:03:11.000Z</time>
      </trkpt>
      <trkpt lat="44.13583" lon="5.29348">
        <ele>1144</ele>
        <time>2026-07-12T22:03:43.000Z</time>
      </trkpt>
      <trkpt lat="44.13597" lon="5.29291">
        <ele>1148</ele>
        <time>2026-07-12T22:05:14.000Z</time>
      </trkpt>
      <trkpt lat="44.13599" lon="5.2928">
        <ele>1149</ele>
        <time>2026-07-12T22:05:34.000Z</time>
      </trkpt>
      <trkpt lat="44.136" lon="5.29235">
        <ele>1148</ele>
        <time>2026-07-12T22:06:11.000Z</time>
      </trkpt>
      <trkpt lat="44.13604" lon="5.29199">
        <ele>1149</ele>
        <time>2026-07-12T22:06:51.000Z</time>
      </trkpt>
      <trkpt lat="44.13611" lon="5.2915">
        <ele>1149</ele>
        <time>2026-07-12T22:07:32.000Z</time>
      </trkpt>
      <trkpt lat="44.13613" lon="5.29115">
        <ele>1150</ele>
        <time>2026-07-12T22:08:11.000Z</time>
      </trkpt>
      <trkpt lat="44.13615" lon="5.29103">
        <ele>1149</ele>
        <time>2026-07-12T22:08:21.000Z</time>
      </trkpt>
      <trkpt lat="44.13625" lon="5.29046">
        <ele>1150</ele>
        <time>2026-07-12T22:09:20.000Z</time>
      </trkpt>
      <trkpt lat="44.1363" lon="5.29027">
        <ele>1150</ele>
        <time>2026-07-12T22:09:37.000Z</time>
      </trkpt>
      <trkpt lat="44.13632" lon="5.29021">
        <ele>1150</ele>
        <time>2026-07-12T22:09:42.000Z</time>
      </trkpt>
      <trkpt lat="44.13641" lon="5.29013">
        <ele>1151</ele>
        <time>2026-07-12T22:10:05.000Z</time>
      </trkpt>
      <trkpt lat="44.13651" lon="5.29008">
        <ele>1152</ele>
        <time>2026-07-12T22:10:27.000Z</time>
      </trkpt>
      <trkpt lat="44.1363" lon="5.28996">
        <ele>1148</ele>
        <time>2026-07-12T22:10:53.000Z</time>
      </trkpt>
      <trkpt lat="44.13626" lon="5.28992">
        <ele>1147</ele>
        <time>2026-07-12T22:10:59.000Z</time>
      </trkpt>
      <trkpt lat="44.13609" lon="5.28962">
        <ele>1143</ele>
        <time>2026-07-12T22:11:30.000Z</time>
      </trkpt>
      <trkpt lat="44.13593" lon="5.28938">
        <ele>1138</ele>
        <time>2026-07-12T22:11:57.000Z</time>
      </trkpt>
      <trkpt lat="44.13582" lon="5.28915">
        <ele>1135</ele>
        <time>2026-07-12T22:12:20.000Z</time>
      </trkpt>
      <trkpt lat="44.13576" lon="5.28899">
        <ele>1132</ele>
        <time>2026-07-12T22:12:35.000Z</time>
      </trkpt>
      <trkpt lat="44.13554" lon="5.28849">
        <ele>1124</ele>
        <time>2026-07-12T22:13:23.000Z</time>
      </trkpt>
      <trkpt lat="44.13543" lon="5.28809">
        <ele>1118</ele>
        <time>2026-07-12T22:13:58.000Z</time>
      </trkpt>
      <trkpt lat="44.13539" lon="5.28802">
        <ele>1117</ele>
        <time>2026-07-12T22:14:05.000Z</time>
      </trkpt>
      <trkpt lat="44.13512" lon="5.28768">
        <ele>1110</ele>
        <time>2026-07-12T22:14:47.000Z</time>
      </trkpt>
      <trkpt lat="44.13509" lon="5.28762">
        <ele>1109</ele>
        <time>2026-07-12T22:14:53.000Z</time>
      </trkpt>
      <trkpt lat="44.13503" lon="5.28745">
        <ele>1106</ele>
        <time>2026-07-12T22:15:09.000Z</time>
      </trkpt>
      <trkpt lat="44.13496" lon="5.28712">
        <ele>1104</ele>
        <time>2026-07-12T22:15:37.000Z</time>
      </trkpt>
      <trkpt lat="44.13494" lon="5.28703">
        <ele>1102</ele>
        <time>2026-07-12T22:15:45.000Z</time>
      </trkpt>
      <trkpt lat="44.13489" lon="5.28645">
        <ele>1096</ele>
        <time>2026-07-12T22:16:33.000Z</time>
      </trkpt>
      <trkpt lat="44.13489" lon="5.28635">
        <ele>1094</ele>
        <time>2026-07-12T22:16:41.000Z</time>
      </trkpt>
      <trkpt lat="44.13492" lon="5.28583">
        <ele>1091</ele>
        <time>2026-07-12T22:17:24.000Z</time>
      </trkpt>
      <trkpt lat="44.13492" lon="5.2857">
        <ele>1090</ele>
        <time>2026-07-12T22:17:35.000Z</time>
      </trkpt>
      <trkpt lat="44.13484" lon="5.28505">
        <ele>1084</ele>
        <time>2026-07-12T22:18:29.000Z</time>
      </trkpt>
      <trkpt lat="44.13489" lon="5.28461">
        <ele>1081</ele>
        <time>2026-07-12T22:19:06.000Z</time>
      </trkpt>
      <trkpt lat="44.13491" lon="5.28427">
        <ele>1079</ele>
        <time>2026-07-12T22:19:34.000Z</time>
      </trkpt>
      <trkpt lat="44.1349" lon="5.28412">
        <ele>1078</ele>
        <time>2026-07-12T22:19:46.000Z</time>
      </trkpt>
      <trkpt lat="44.13482" lon="5.28379">
        <ele>1074</ele>
        <time>2026-07-12T22:20:15.000Z</time>
      </trkpt>
      <trkpt lat="44.13481" lon="5.28373">
        <ele>1074</ele>
        <time>2026-07-12T22:20:20.000Z</time>
      </trkpt>
      <trkpt lat="44.13482" lon="5.28358">
        <ele>1073</ele>
        <time>2026-07-12T22:20:32.000Z</time>
      </trkpt>
      <trkpt lat="44.13486" lon="5.28332">
        <ele>1072</ele>
        <time>2026-07-12T22:20:54.000Z</time>
      </trkpt>
      <trkpt lat="44.13501" lon="5.28269">
        <ele>1062</ele>
        <time>2026-07-12T22:21:49.000Z</time>
      </trkpt>
      <trkpt lat="44.13504" lon="5.28257">
        <ele>1061</ele>
        <time>2026-07-12T22:21:59.000Z</time>
      </trkpt>
      <trkpt lat="44.13498" lon="5.28239">
        <ele>1059</ele>
        <time>2026-07-12T22:22:15.000Z</time>
      </trkpt>
      <trkpt lat="44.13493" lon="5.28229">
        <ele>1058</ele>
        <time>2026-07-12T22:22:25.000Z</time>
      </trkpt>
      <trkpt lat="44.13489" lon="5.28222">
        <ele>1057</ele>
        <time>2026-07-12T22:22:32.000Z</time>
      </trkpt>
      <trkpt lat="44.13473" lon="5.28203">
        <ele>1052</ele>
        <time>2026-07-12T22:22:56.000Z</time>
      </trkpt>
      <trkpt lat="44.13462" lon="5.28198">
        <ele>1050</ele>
        <time>2026-07-12T22:23:09.000Z</time>
      </trkpt>
      <trkpt lat="44.13447" lon="5.28189">
        <ele>1047</ele>
        <time>2026-07-12T22:23:28.000Z</time>
      </trkpt>
      <trkpt lat="44.13434" lon="5.28177">
        <ele>1045</ele>
        <time>2026-07-12T22:23:46.000Z</time>
      </trkpt>
      <trkpt lat="44.13422" lon="5.28162">
        <ele>1042</ele>
        <time>2026-07-12T22:24:04.000Z</time>
      </trkpt>
      <trkpt lat="44.13408" lon="5.28136">
        <ele>1039</ele>
        <time>2026-07-12T22:24:31.000Z</time>
      </trkpt>
      <trkpt lat="44.1339" lon="5.28085">
        <ele>1034</ele>
        <time>2026-07-12T22:25:18.000Z</time>
      </trkpt>
      <trkpt lat="44.1338" lon="5.2807">
        <ele>1033</ele>
        <time>2026-07-12T22:25:35.000Z</time>
      </trkpt>
      <trkpt lat="44.13346" lon="5.28039">
        <ele>1027</ele>
        <time>2026-07-12T22:26:22.000Z</time>
      </trkpt>
      <trkpt lat="44.13327" lon="5.2803">
        <ele>1024</ele>
        <time>2026-07-12T22:26:45.000Z</time>
      </trkpt>
      <trkpt lat="44.13311" lon="5.28019">
        <ele>1022</ele>
        <time>2026-07-12T22:27:05.000Z</time>
      </trkpt>
      <trkpt lat="44.13303" lon="5.28012">
        <ele>1021</ele>
        <time>2026-07-12T22:27:16.000Z</time>
      </trkpt>
      <trkpt lat="44.13284" lon="5.27982">
        <ele>1019</ele>
        <time>2026-07-12T22:27:49.000Z</time>
      </trkpt>
      <trkpt lat="44.13275" lon="5.27972">
        <ele>1017</ele>
        <time>2026-07-12T22:28:02.000Z</time>
      </trkpt>
      <trkpt lat="44.13261" lon="5.2796">
        <ele>1015</ele>
        <time>2026-07-12T22:28:21.000Z</time>
      </trkpt>
      <trkpt lat="44.1325" lon="5.27952">
        <ele>1013</ele>
        <time>2026-07-12T22:28:35.000Z</time>
      </trkpt>
      <trkpt lat="44.13228" lon="5.2794">
        <ele>1010</ele>
        <time>2026-07-12T22:29:02.000Z</time>
      </trkpt>
      <trkpt lat="44.13216" lon="5.27929">
        <ele>1008</ele>
        <time>2026-07-12T22:29:18.000Z</time>
      </trkpt>
      <trkpt lat="44.13206" lon="5.27917">
        <ele>1006</ele>
        <time>2026-07-12T22:29:33.000Z</time>
      </trkpt>
      <trkpt lat="44.13198" lon="5.27902">
        <ele>1004</ele>
        <time>2026-07-12T22:29:48.000Z</time>
      </trkpt>
      <trkpt lat="44.13186" lon="5.27871">
        <ele>1000</ele>
        <time>2026-07-12T22:30:17.000Z</time>
      </trkpt>
      <trkpt lat="44.13177" lon="5.27848">
        <ele>998</ele>
        <time>2026-07-12T22:30:39.000Z</time>
      </trkpt>
      <trkpt lat="44.13175" lon="5.27839">
        <ele>998</ele>
        <time>2026-07-12T22:30:47.000Z</time>
      </trkpt>
      <trkpt lat="44.1317" lon="5.2783">
        <ele>996</ele>
        <time>2026-07-12T22:30:56.000Z</time>
      </trkpt>
      <trkpt lat="44.13164" lon="5.27823">
        <ele>995</ele>
        <time>2026-07-12T22:31:05.000Z</time>
      </trkpt>
      <trkpt lat="44.13157" lon="5.27811">
        <ele>994</ele>
        <time>2026-07-12T22:31:18.000Z</time>
      </trkpt>
      <trkpt lat="44.13148" lon="5.27789">
        <ele>992</ele>
        <time>2026-07-12T22:31:39.000Z</time>
      </trkpt>
      <trkpt lat="44.13095" lon="5.27712">
        <ele>981</ele>
        <time>2026-07-12T22:33:07.000Z</time>
      </trkpt>
      <trkpt lat="44.13077" lon="5.27672">
        <ele>977</ele>
        <time>2026-07-12T22:33:46.000Z</time>
      </trkpt>
      <trkpt lat="44.13069" lon="5.27648">
        <ele>975</ele>
        <time>2026-07-12T22:34:08.000Z</time>
      </trkpt>
      <trkpt lat="44.13068" lon="5.27632">
        <ele>973</ele>
        <time>2026-07-12T22:34:21.000Z</time>
      </trkpt>
      <trkpt lat="44.13068" lon="5.27615">
        <ele>971</ele>
        <time>2026-07-12T22:34:35.000Z</time>
      </trkpt>
      <trkpt lat="44.13069" lon="5.27596">
        <ele>969</ele>
        <time>2026-07-12T22:34:51.000Z</time>
      </trkpt>
      <trkpt lat="44.13072" lon="5.27571">
        <ele>966</ele>
        <time>2026-07-12T22:35:12.000Z</time>
      </trkpt>
      <trkpt lat="44.13071" lon="5.27555">
        <ele>965</ele>
        <time>2026-07-12T22:35:25.000Z</time>
      </trkpt>
      <trkpt lat="44.13073" lon="5.27538">
        <ele>961</ele>
        <time>2026-07-12T22:35:39.000Z</time>
      </trkpt>
      <trkpt lat="44.13081" lon="5.27488">
        <ele>957</ele>
        <time>2026-07-12T22:36:21.000Z</time>
      </trkpt>
      <trkpt lat="44.13084" lon="5.27466">
        <ele>956</ele>
        <time>2026-07-12T22:36:39.000Z</time>
      </trkpt>
      <trkpt lat="44.13084" lon="5.27422">
        <ele>951</ele>
        <time>2026-07-12T22:37:15.000Z</time>
      </trkpt>
      <trkpt lat="44.13085" lon="5.27411">
        <ele>950</ele>
        <time>2026-07-12T22:37:24.000Z</time>
      </trkpt>
      <trkpt lat="44.13094" lon="5.27383">
        <ele>948</ele>
        <time>2026-07-12T22:37:49.000Z</time>
      </trkpt>
      <trkpt lat="44.13098" lon="5.27366">
        <ele>946</ele>
        <time>2026-07-12T22:38:04.000Z</time>
      </trkpt>
      <trkpt lat="44.131" lon="5.27346">
        <ele>945</ele>
        <time>2026-07-12T22:38:21.000Z</time>
      </trkpt>
      <trkpt lat="44.13099" lon="5.27313">
        <ele>941</ele>
        <time>2026-07-12T22:38:48.000Z</time>
      </trkpt>
      <trkpt lat="44.13099" lon="5.27285">
        <ele>939</ele>
        <time>2026-07-12T22:39:11.000Z</time>
      </trkpt>
      <trkpt lat="44.13093" lon="5.27254">
        <ele>938</ele>
        <time>2026-07-12T22:39:37.000Z</time>
      </trkpt>
      <trkpt lat="44.13082" lon="5.27219">
        <ele>935</ele>
        <time>2026-07-12T22:40:08.000Z</time>
      </trkpt>
      <trkpt lat="44.13059" lon="5.27157">
        <ele>930</ele>
        <time>2026-07-12T22:41:05.000Z</time>
      </trkpt>
      <trkpt lat="44.13003" lon="5.27041">
        <ele>920</ele>
        <time>2026-07-12T22:43:00.000Z</time>
      </trkpt>
      <trkpt lat="44.12984" lon="5.27038">
        <ele>918</ele>
        <time>2026-07-12T22:43:22.000Z</time>
      </trkpt>
      <trkpt lat="44.12965" lon="5.27035">
        <ele>915</ele>
        <time>2026-07-12T22:43:44.000Z</time>
      </trkpt>
      <trkpt lat="44.12932" lon="5.27033">
        <ele>911</ele>
        <time>2026-07-12T22:44:22.000Z</time>
      </trkpt>
      <trkpt lat="44.12905" lon="5.27022">
        <ele>907</ele>
        <time>2026-07-12T22:44:54.000Z</time>
      </trkpt>
      <trkpt lat="44.12886" lon="5.27004">
        <ele>904</ele>
        <time>2026-07-12T22:45:20.000Z</time>
      </trkpt>
      <trkpt lat="44.12865" lon="5.26987">
        <ele>900</ele>
        <time>2026-07-12T22:45:48.000Z</time>
      </trkpt>
      <trkpt lat="44.12763" lon="5.26927">
        <ele>885</ele>
        <time>2026-07-12T22:47:55.000Z</time>
      </trkpt>
      <trkpt lat="44.12746" lon="5.26886">
        <ele>879</ele>
        <time>2026-07-12T22:48:34.000Z</time>
      </trkpt>
      <trkpt lat="44.1274" lon="5.26876">
        <ele>877</ele>
        <time>2026-07-12T22:48:45.000Z</time>
      </trkpt>
      <trkpt lat="44.12734" lon="5.2687">
        <ele>876</ele>
        <time>2026-07-12T22:48:53.000Z</time>
      </trkpt>
      <trkpt lat="44.12726" lon="5.26869">
        <ele>875</ele>
        <time>2026-07-12T22:49:02.000Z</time>
      </trkpt>
      <trkpt lat="44.12712" lon="5.26872">
        <ele>873</ele>
        <time>2026-07-12T22:49:18.000Z</time>
      </trkpt>
      <trkpt lat="44.12703" lon="5.26871">
        <ele>871</ele>
        <time>2026-07-12T22:49:28.000Z</time>
      </trkpt>
      <trkpt lat="44.12681" lon="5.26863">
        <ele>869</ele>
        <time>2026-07-12T22:49:54.000Z</time>
      </trkpt>
      <trkpt lat="44.12662" lon="5.2686">
        <ele>867</ele>
        <time>2026-07-12T22:50:16.000Z</time>
      </trkpt>
      <trkpt lat="44.12647" lon="5.26851">
        <ele>864</ele>
        <time>2026-07-12T22:50:35.000Z</time>
      </trkpt>
      <trkpt lat="44.12642" lon="5.26849">
        <ele>863</ele>
        <time>2026-07-12T22:50:41.000Z</time>
      </trkpt>
      <trkpt lat="44.12645" lon="5.26834">
        <ele>862</ele>
        <time>2026-07-12T22:50:54.000Z</time>
      </trkpt>
      <trkpt lat="44.12648" lon="5.26825">
        <ele>861</ele>
        <time>2026-07-12T22:51:02.000Z</time>
      </trkpt>
      <trkpt lat="44.12646" lon="5.268">
        <ele>862</ele>
        <time>2026-07-12T22:51:33.000Z</time>
      </trkpt>
      <trkpt lat="44.12636" lon="5.2678">
        <ele>859</ele>
        <time>2026-07-12T22:51:53.000Z</time>
      </trkpt>
      <trkpt lat="44.12608" lon="5.26768">
        <ele>853</ele>
        <time>2026-07-12T22:52:27.000Z</time>
      </trkpt>
      <trkpt lat="44.12566" lon="5.26756">
        <ele>845</ele>
        <time>2026-07-12T22:53:16.000Z</time>
      </trkpt>
      <trkpt lat="44.12553" lon="5.26735">
        <ele>842</ele>
        <time>2026-07-12T22:53:39.000Z</time>
      </trkpt>
      <trkpt lat="44.12541" lon="5.26711">
        <ele>838</ele>
        <time>2026-07-12T22:54:03.000Z</time>
      </trkpt>
      <trkpt lat="44.12525" lon="5.26678">
        <ele>835</ele>
        <time>2026-07-12T22:54:36.000Z</time>
      </trkpt>
      <trkpt lat="44.12504" lon="5.26641">
        <ele>828</ele>
        <time>2026-07-12T22:55:15.000Z</time>
      </trkpt>
      <trkpt lat="44.12493" lon="5.26622">
        <ele>826</ele>
        <time>2026-07-12T22:55:35.000Z</time>
      </trkpt>
      <trkpt lat="44.12481" lon="5.26594">
        <ele>823</ele>
        <time>2026-07-12T22:56:02.000Z</time>
      </trkpt>
      <trkpt lat="44.12444" lon="5.26564">
        <ele>819</ele>
        <time>2026-07-12T22:56:51.000Z</time>
      </trkpt>
      <trkpt lat="44.12429" lon="5.26539">
        <ele>815</ele>
        <time>2026-07-12T22:57:18.000Z</time>
      </trkpt>
      <trkpt lat="44.12415" lon="5.26512">
        <ele>813</ele>
        <time>2026-07-12T22:57:45.000Z</time>
      </trkpt>
      <trkpt lat="44.12407" lon="5.26505">
        <ele>812</ele>
        <time>2026-07-12T22:57:56.000Z</time>
      </trkpt>
      <trkpt lat="44.12403" lon="5.26504">
        <ele>812</ele>
        <time>2026-07-12T22:58:01.000Z</time>
      </trkpt>
    </trkseg>
  </trk>
</gpx>